Time;durP1;ratioP1;P1;durP2;ratioP2;P2;SDS_P1;SDS_P2;PMS_P1;PMS_P2;Temp;Humidity;BMP_temperature;BMP_pressure;BME280_temperature;BME280_humidity;BME280_pressure;Samples;Min_cycle;Max_cycle;Signal;HPM_P1;HPM_P2
2022/01/27 00:00:43;;;;;;;13.23;11.83;;;4.20;44.50;;;;;;10419170;28;20352;-73
2022/01/27 00:05:51;;;;;;;14.07;12.17;;;4.20;44.50;;;;;;10415975;28;20252;-73
2022/01/27 00:10:59;;;;;;;13.93;12.00;;;4.10;44.40;;;;;;10414459;28;20227;-73
2022/01/27 00:16:14;;;;;;;15.17;12.10;;;4.10;44.50;;;;;;10410689;28;20220;-73
2022/01/27 00:21:19;;;;;;;14.30;12.33;;;4.10;44.50;;;;;;10408571;28;20331;-73
2022/01/27 00:26:24;;;;;;;13.77;12.33;;;4.10;44.50;;;;;;10407845;28;20233;-73
2022/01/27 00:31:28;;;;;;;14.07;11.90;;;4.10;44.40;;;;;;10413355;28;20316;-74
2022/01/27 00:36:32;;;;;;;12.77;11.43;;;4.00;44.50;;;;;;10422700;28;20797;-73
2022/01/27 00:41:36;;;;;;;15.10;13.60;;;4.00;44.50;;;;;;10414713;28;20225;-74
2022/01/27 00:46:40;;;;;;;14.03;12.10;;;4.00;44.30;;;;;;10422521;28;20271;-74
2022/01/27 00:51:46;;;;;;;13.90;12.43;;;4.00;44.30;;;;;;10426591;28;20677;-73
2022/01/27 00:56:55;;;;;;;13.67;12.00;;;4.00;44.80;;;;;;10417469;28;20234;-73
2022/01/27 01:02:07;;;;;;;14.87;11.70;;;4.00;44.30;;;;;;10415638;28;20227;-74
2022/01/27 01:07:11;;;;;;;13.33;11.10;;;3.90;44.40;;;;;;10419193;28;20241;-74
2022/01/27 01:33:59;;;;;;;14.40;12.17;;;4.00;44.20;;;;;;10399407;28;20229;-74
2022/01/27 01:39:04;;;;;;;13.17;11.83;;;4.00;44.20;;;;;;10422131;28;20228;-74
2022/01/27 01:44:09;;;;;;;13.53;12.10;;;4.00;44.30;;;;;;10416058;28;20229;-74
2022/01/27 01:49:13;;;;;;;13.57;11.60;;;4.00;44.30;;;;;;10422241;28;20569;-74
2022/01/27 01:54:16;;;;;;;12.43;11.13;;;4.10;44.20;;;;;;10426344;28;20257;-75
2022/01/27 01:59:21;;;;;;;14.07;12.57;;;4.10;45.10;;;;;;10416547;28;20296;-74
2022/01/27 02:04:25;;;;;;;13.63;12.20;;;4.10;44.30;;;;;;10424816;28;21386;-74
2022/01/27 02:09:45;;;;;;;13.77;11.47;;;4.10;44.30;;;;;;10419025;28;20233;-74
2022/01/27 02:20:13;;;;;;;12.27;10.60;;;4.00;43.60;;;;;;10423022;28;20327;-74
2022/01/27 02:25:17;;;;;;;12.60;10.87;;;4.00;43.90;;;;;;10421094;28;20232;-74
2022/01/27 02:30:22;;;;;;;12.93;11.27;;;3.90;43.80;;;;;;10425689;28;20304;-75
2022/01/27 02:35:29;;;;;;;14.10;11.70;;;3.80;43.80;;;;;;10422601;28;20328;-74
2022/01/27 02:40:38;;;;;;;13.63;11.43;;;3.70;43.60;;;;;;10430124;28;20911;-74
2022/01/27 02:45:50;;;;;;;13.20;11.10;;;3.70;43.80;;;;;;10415852;28;20230;-75
2022/01/27 02:50:55;;;;;;;13.03;10.33;;;3.70;43.80;;;;;;10421126;28;20233;-74
2022/01/27 02:55:59;;;;;;;13.03;11.33;;;3.70;43.90;;;;;;10415986;28;20232;-74
2022/01/27 03:01:03;;;;;;;13.33;11.47;;;3.70;44.20;;;;;;10416847;28;20625;-74
2022/01/27 03:06:08;;;;;;;13.70;11.13;;;3.70;44.20;;;;;;10418809;28;20233;-74
2022/01/27 03:11:14;;;;;;;14.53;12.23;;;3.70;44.00;;;;;;10426100;28;20239;-74
2022/01/27 03:16:17;;;;;;;15.23;13.13;;;3.70;44.00;;;;;;10413824;28;20257;-74
2022/01/27 03:21:22;;;;;;;15.43;12.27;;;3.70;44.10;;;;;;10409536;28;20603;-74
2022/01/27 03:26:26;;;;;;;14.67;12.23;;;3.80;44.20;;;;;;10411279;28;20724;-74
2022/01/27 03:31:30;;;;;;;16.60;12.40;;;3.70;44.10;;;;;;10426724;28;20232;-74
2022/01/27 03:36:35;;;;;;;14.73;12.83;;;3.70;44.00;;;;;;10404556;28;20295;-69
2022/01/27 03:41:46;;;;;;;14.70;12.83;;;3.70;43.90;;;;;;10405574;28;20962;-69
2022/01/27 03:46:50;;;;;;;16.00;12.67;;;3.80;44.00;;;;;;10441374;28;20239;-70
2022/01/27 03:51:59;;;;;;;16.40;13.07;;;3.80;44.10;;;;;;10442423;28;20231;-69
2022/01/27 03:57:02;;;;;;;14.47;12.27;;;3.70;44.20;;;;;;10441519;28;20282;-70
2022/01/27 04:02:06;;;;;;;16.57;13.70;;;3.80;44.40;;;;;;10441223;28;20232;-70
2022/01/27 04:07:11;;;;;;;16.23;14.07;;;3.80;44.40;;;;;;10441004;28;20257;-69
2022/01/27 04:12:14;;;;;;;16.80;13.80;;;3.80;44.30;;;;;;10441453;28;20721;-69
2022/01/27 04:17:17;;;;;;;16.37;13.77;;;3.90;44.40;;;;;;10440738;28;20253;-69
2022/01/27 04:22:22;;;;;;;16.20;13.33;;;3.80;44.20;;;;;;10441504;28;20607;-69
2022/01/27 04:27:30;;;;;;;16.73;14.20;;;3.90;44.20;;;;;;10441051;28;20864;-70
2022/01/27 04:32:41;;;;;;;18.00;14.83;;;3.90;44.30;;;;;;10440563;28;20237;-69
2022/01/27 04:37:58;;;;;;;18.40;15.50;;;3.90;44.30;;;;;;10440385;28;20473;-69
2022/01/27 04:43:08;;;;;;;18.30;14.13;;;3.80;44.10;;;;;;10440626;28;20233;-69
2022/01/27 04:48:15;;;;;;;19.67;14.87;;;3.80;44.30;;;;;;10440015;28;20312;-70
2022/01/27 04:53:25;;;;;;;19.13;15.67;;;3.80;44.30;;;;;;10439992;28;20236;-69
2022/01/27 04:58:55;;;;;;;18.77;15.20;;;3.80;44.20;;;;;;10440564;28;20236;-69
2022/01/27 05:04:03;;;;;;;17.00;14.63;;;3.70;44.10;;;;;;10439760;28;20228;-70
2022/01/27 05:09:07;;;;;;;19.90;15.90;;;3.70;44.10;;;;;;10439984;28;20221;-69
2022/01/27 05:14:15;;;;;;;21.03;17.20;;;3.70;44.20;;;;;;10439974;28;20239;-69
2022/01/27 05:19:19;;;;;;;24.33;19.00;;;3.70;44.30;;;;;;10440783;28;20617;-69
2022/01/27 05:24:24;;;;;;;18.97;16.40;;;3.70;44.10;;;;;;10446814;28;20237;-69
2022/01/27 05:29:27;;;;;;;19.37;15.57;;;3.70;44.10;;;;;;10427276;28;20732;-69
2022/01/27 05:34:30;;;;;;;22.90;17.80;;;3.70;44.00;;;;;;10405623;28;20308;-69
2022/01/27 05:39:35;;;;;;;23.20;17.50;;;3.60;44.10;;;;;;10404609;28;20713;-70
2022/01/27 05:44:38;;;;;;;22.17;17.53;;;3.70;44.20;;;;;;10404542;28;20234;-69
2022/01/27 05:49:41;;;;;;;21.00;16.37;;;3.60;44.30;;;;;;10405373;28;20229;-70
2022/01/27 05:54:46;;;;;;;23.33;18.20;;;3.40;44.30;;;;;;10405554;28;20233;-70
2022/01/27 05:59:49;;;;;;;21.77;16.53;;;3.40;44.40;;;;;;10404705;28;20241;-70
2022/01/27 06:04:52;;;;;;;22.27;17.30;;;3.40;44.40;;;;;;10435738;28;20229;-70
2022/01/27 06:09:57;;;;;;;19.97;17.23;;;3.50;44.50;;;;;;10445365;28;20232;-70
2022/01/27 06:15:00;;;;;;;22.57;17.37;;;3.40;44.50;;;;;;10443677;28;20241;-70
2022/01/27 06:20:04;;;;;;;22.33;17.53;;;3.50;44.50;;;;;;10444018;28;20764;-71
2022/01/27 06:25:11;;;;;;;20.73;16.93;;;3.40;44.30;;;;;;10433273;28;20236;-73
2022/01/27 06:30:14;;;;;;;20.27;16.63;;;3.40;44.30;;;;;;10420315;28;20226;-73
2022/01/27 06:35:17;;;;;;;23.73;18.97;;;3.40;44.30;;;;;;10419755;28;20231;-73
2022/01/27 06:40:21;;;;;;;23.13;17.77;;;3.40;44.30;;;;;;10425912;28;20709;-73
2022/01/27 06:45:24;;;;;;;23.13;18.20;;;3.40;44.10;;;;;;10418937;28;20477;-73
2022/01/27 06:50:28;;;;;;;22.83;17.90;;;3.40;44.20;;;;;;10416579;28;20229;-73
2022/01/27 06:55:33;;;;;;;21.13;16.63;;;3.40;44.20;;;;;;10420799;28;20611;-73
2022/01/27 07:00:37;;;;;;;21.00;17.47;;;3.40;44.20;;;;;;10420020;28;20236;-73
2022/01/27 07:05:41;;;;;;;25.77;19.67;;;3.40;44.10;;;;;;10415433;28;20239;-73
2022/01/27 07:10:45;;;;;;;24.27;19.07;;;3.40;44.10;;;;;;10415053;28;20229;-73
2022/01/27 07:15:49;;;;;;;21.80;17.93;;;3.40;44.10;;;;;;10410635;28;20576;-73
2022/01/27 07:20:52;;;;;;;26.80;19.87;;;3.40;44.20;;;;;;10416573;28;20225;-73
2022/01/27 07:25:57;;;;;;;23.23;18.77;;;3.40;44.10;;;;;;10413279;28;20222;-73
2022/01/27 07:31:01;;;;;;;24.23;17.83;;;3.40;44.10;;;;;;10414314;28;20696;-74
2022/01/27 07:36:05;;;;;;;23.50;17.37;;;3.40;44.10;;;;;;10414064;28;20225;-74
2022/01/27 07:41:10;;;;;;;23.63;18.50;;;3.40;44.20;;;;;;10410756;28;20229;-74
2022/01/27 07:46:14;;;;;;;25.93;20.40;;;3.50;44.30;;;;;;10411350;28;20236;-74
2022/01/27 07:51:17;;;;;;;25.30;19.90;;;3.60;45.00;;;;;;10426217;28;20783;-74
2022/01/27 07:56:22;;;;;;;24.03;18.93;;;3.60;44.50;;;;;;10420962;28;20822;-73
2022/01/27 08:01:25;;;;;;;21.47;17.43;;;3.60;44.40;;;;;;10421430;28;20225;-74
2022/01/27 08:06:28;;;;;;;23.87;19.57;;;3.70;44.40;;;;;;10421995;28;20225;-74
2022/01/27 08:11:33;;;;;;;27.73;20.80;;;3.80;44.30;;;;;;10418403;28;20266;-74
2022/01/27 08:16:36;;;;;;;25.17;19.47;;;3.80;43.90;;;;;;10420003;28;20316;-74
2022/01/27 08:21:40;;;;;;;23.93;18.67;;;3.80;44.10;;;;;;10419998;28;20233;-74
2022/01/27 08:26:46;;;;;;;26.57;19.93;;;3.80;44.20;;;;;;10422062;28;20229;-74
2022/01/27 08:31:57;;;;;;;24.17;18.90;;;3.80;44.30;;;;;;10424341;28;20242;-74
2022/01/27 08:37:03;;;;;;;24.00;19.17;;;3.80;44.30;;;;;;10420241;28;20326;-74
2022/01/27 08:42:09;;;;;;;21.53;17.43;;;3.80;44.30;;;;;;10425732;28;20582;-73
2022/01/27 08:47:14;;;;;;;26.80;19.07;;;3.80;44.40;;;;;;10426023;28;20225;-73
2022/01/27 08:52:17;;;;;;;23.03;17.77;;;3.90;44.10;;;;;;10435042;28;20221;-73
2022/01/27 08:57:22;;;;;;;23.47;18.93;;;3.90;44.20;;;;;;10435181;28;20786;-73
2022/01/27 09:02:25;;;;;;;25.93;18.47;;;3.90;44.00;;;;;;10427055;28;20832;-73
2022/01/27 09:07:29;;;;;;;25.27;18.77;;;3.90;44.20;;;;;;10423351;28;20333;-72
2022/01/27 09:12:34;;;;;;;24.53;18.50;;;4.00;44.10;;;;;;10422826;28;20225;-72
2022/01/27 09:17:40;;;;;;;26.27;19.53;;;4.00;44.00;;;;;;10435086;28;20651;-72
2022/01/27 09:22:43;;;;;;;22.83;18.33;;;4.00;43.90;;;;;;10418981;28;20225;-72
2022/01/27 09:27:49;;;;;;;20.87;17.37;;;4.10;44.00;;;;;;10439840;28;20235;-72
2022/01/27 09:32:52;;;;;;;24.30;19.80;;;4.10;43.90;;;;;;10441013;28;20235;-71
2022/01/27 09:37:56;;;;;;;23.83;18.87;;;4.20;43.90;;;;;;10404986;28;20221;-71
2022/01/27 09:43:03;;;;;;;24.83;18.00;;;4.20;43.70;;;;;;10398560;28;20702;-71
2022/01/27 09:48:13;;;;;;;23.57;18.43;;;4.20;44.00;;;;;;10380526;28;20316;-72
2022/01/27 09:53:17;;;;;;;23.33;18.33;;;4.40;44.10;;;;;;10373829;28;20237;-72
2022/01/27 09:58:22;;;;;;;25.83;19.57;;;4.50;43.80;;;;;;10373962;28;20218;-72
2022/01/27 10:03:28;;;;;;;25.17;20.60;;;4.60;43.30;;;;;;10375730;28;20241;-72
2022/01/27 10:08:32;;;;;;;27.90;21.80;;;4.70;43.00;;;;;;10367470;28;20312;-73
2022/01/27 10:13:40;;;;;;;28.00;21.40;;;4.70;42.80;;;;;;10374080;28;20232;-72
2022/01/27 10:18:44;;;;;;;29.40;21.50;;;4.70;42.60;;;;;;10371970;28;20327;-72
2022/01/27 10:23:51;;;;;;;26.13;19.47;;;4.60;43.00;;;;;;10370629;28;20238;-72
2022/01/27 10:29:02;;;;;;;27.40;20.33;;;4.70;43.50;;;;;;10374183;28;20226;-73
2022/01/27 10:34:07;;;;;;;26.53;20.53;;;4.70;42.80;;;;;;10368070;28;20602;-72
2022/01/27 10:39:12;;;;;;;27.50;21.27;;;4.70;42.60;;;;;;10375613;28;21023;-73
2022/01/27 10:44:18;;;;;;;28.37;21.37;;;4.60;42.40;;;;;;10370303;28;20230;-72
2022/01/27 10:49:30;;;;;;;28.60;20.77;;;4.70;42.50;;;;;;10378777;28;21886;-72
2022/01/27 10:54:38;;;;;;;24.90;18.27;;;4.60;42.70;;;;;;10371198;28;20233;-72
2022/01/27 10:59:44;;;;;;;24.47;18.43;;;4.60;43.10;;;;;;10367399;28;20226;-72
2022/01/27 11:04:47;;;;;;;26.00;19.27;;;4.80;42.70;;;;;;10365963;28;20230;-73
2022/01/27 11:09:50;;;;;;;26.83;19.07;;;4.60;42.80;;;;;;10372415;28;20222;-73
2022/01/27 11:14:55;;;;;;;23.33;17.67;;;4.70;42.60;;;;;;10373734;28;20980;-73
2022/01/27 11:25:52;;;;;;;26.97;20.00;;;4.70;42.60;;;;;;10430170;27;20569;-70
2022/01/27 11:31:11;;;;;;;26.53;20.10;;;4.80;42.60;;;;;;10357230;28;20236;-72
2022/01/27 11:36:19;;;;;;;28.77;18.87;;;4.80;42.30;;;;;;10356640;28;20292;-71
2022/01/27 11:41:42;;;;;;;27.23;18.73;;;4.80;42.70;;;;;;10372695;28;20244;-71
2022/01/27 11:47:18;;;;;;;26.90;20.57;;;4.90;42.60;;;;;;10364778;28;20238;-71
2022/01/27 11:52:26;;;;;;;24.60;19.40;;;5.00;41.50;;;;;;10364687;28;20233;-71
2022/01/27 11:57:42;;;;;;;25.23;19.17;;;5.00;43.10;;;;;;10371152;28;20222;-70
2022/01/27 12:03:12;;;;;;;27.73;19.60;;;5.10;41.60;;;;;;10360136;28;20230;-70
2022/01/27 12:08:25;;;;;;;24.97;18.57;;;5.10;42.20;;;;;;10360564;28;20227;-70
2022/01/27 12:14:00;;;;;;;26.00;18.13;;;5.00;41.50;;;;;;10349360;28;20230;-70
2022/01/27 12:19:06;;;;;;;24.23;17.43;;;4.90;41.50;;;;;;10390915;28;20230;-71
2022/01/27 12:24:22;;;;;;;22.33;16.70;;;4.80;42.40;;;;;;10392287;28;20236;-70
2022/01/27 12:29:35;;;;;;;21.87;15.90;;;4.80;41.60;;;;;;10390835;28;20235;-71
2022/01/27 12:34:39;;;;;;;20.97;16.27;;;4.90;42.60;;;;;;10379051;28;20232;-71
2022/01/27 12:39:44;;;;;;;21.50;15.57;;;4.90;42.50;;;;;;10366940;28;20245;-70
2022/01/27 12:44:57;;;;;;;22.77;15.30;;;4.90;42.60;;;;;;10364785;28;20233;-71
2022/01/27 12:50:08;;;;;;;23.17;16.53;;;4.90;42.30;;;;;;10365400;28;20229;-71
2022/01/27 12:55:13;;;;;;;21.30;15.73;;;4.90;42.00;;;;;;10359566;28;20816;-71
2022/01/27 13:00:22;;;;;;;24.80;16.73;;;4.80;42.20;;;;;;10355827;28;20363;-71
2022/01/27 13:05:25;;;;;;;23.67;16.33;;;4.80;42.10;;;;;;10362311;28;20238;-71
2022/01/27 13:10:28;;;;;;;23.37;16.10;;;4.70;42.40;;;;;;10363088;28;20218;-70
2022/01/27 13:15:33;;;;;;;20.83;14.87;;;4.80;42.60;;;;;;10368559;28;20236;-71
2022/01/27 13:20:40;;;;;;;23.17;15.83;;;4.80;42.60;;;;;;10372633;28;20226;-71
2022/01/27 13:25:46;;;;;;;19.53;14.27;;;4.90;42.40;;;;;;10365140;28;20721;-71
2022/01/27 13:30:53;;;;;;;15.70;10.60;;;4.90;42.60;;;;;;10370577;28;21219;-71
2022/01/27 13:35:58;;;;;;;11.03;8.00;;;5.00;42.70;;;;;;10367820;28;20377;-71
2022/01/27 13:41:19;;;;;;;10.07;7.73;;;5.10;42.80;;;;;;10371867;28;20245;-71
2022/01/27 13:46:44;;;;;;;9.33;7.80;;;5.20;42.90;;;;;;10370529;28;20249;-71
2022/01/27 13:51:51;;;;;;;11.87;9.03;;;5.30;41.90;;;;;;10361877;28;20219;-71
2022/01/27 13:56:54;;;;;;;11.73;9.13;;;5.40;42.20;;;;;;10378776;28;20230;-71
2022/01/27 14:02:15;;;;;;;11.27;8.43;;;5.50;42.60;;;;;;10373543;28;20342;-71
2022/01/27 14:07:28;;;;;;;14.17;9.97;;;5.50;42.40;;;;;;10369072;28;20226;-71
2022/01/27 14:12:49;;;;;;;13.67;10.80;;;5.60;42.50;;;;;;10369577;28;20224;-71
2022/01/27 14:17:59;;;;;;;13.07;10.20;;;5.70;42.40;;;;;;10362106;28;20229;-71
2022/01/27 14:23:14;;;;;;;11.07;8.77;;;5.80;42.60;;;;;;10365602;28;20233;-71
2022/01/27 14:28:18;;;;;;;10.87;7.60;;;5.90;42.80;;;;;;10367861;28;20575;-70
2022/01/27 14:33:22;;;;;;;8.20;7.30;;;5.90;42.50;;;;;;10368645;28;20226;-71
2022/01/27 14:38:26;;;;;;;8.70;7.40;;;5.90;42.40;;;;;;10369504;28;20623;-71
2022/01/27 14:43:30;;;;;;;7.83;7.00;;;5.80;42.50;;;;;;10367661;28;20792;-71
2022/01/27 14:48:38;;;;;;;11.00;8.10;;;5.80;42.80;;;;;;10367817;28;20225;-71
2022/01/27 14:53:41;;;;;;;9.37;7.83;;;5.80;42.90;;;;;;10361701;28;20320;-71
2022/01/27 14:58:45;;;;;;;8.60;7.27;;;5.70;43.10;;;;;;10363487;28;20233;-75
2022/01/27 15:03:49;;;;;;;8.27;7.47;;;5.70;43.30;;;;;;10364000;28;20234;-71
2022/01/27 15:08:54;;;;;;;8.27;7.40;;;5.80;43.90;;;;;;10361181;28;20628;-71
2022/01/27 15:18:48;;;;;;;9.37;7.03;;;5.80;43.20;;;;;;10363245;28;20226;-71
2022/01/27 15:19:34;;;;;;;10.33;8.20;;;5.80;43.30;;;;;;10358001;28;20770;-71
2022/01/27 15:24:39;;;;;;;8.07;7.00;;;5.80;43.10;;;;;;10365049;28;20232;-71
2022/01/27 15:29:42;;;;;;;7.40;6.40;;;5.90;43.50;;;;;;10369485;28;20237;-71
2022/01/27 15:34:47;;;;;;;7.73;6.70;;;5.90;43.40;;;;;;10376998;28;20287;-71
2022/01/27 15:39:55;;;;;;;9.23;7.57;;;6.00;43.30;;;;;;10381799;28;20736;-71
2022/01/27 15:44:59;;;;;;;7.63;6.73;;;6.00;43.50;;;;;;10370923;28;20230;-72
2022/01/27 15:50:04;;;;;;;8.73;6.67;;;6.10;43.60;;;;;;10371559;28;20218;-71
2022/01/27 15:55:10;;;;;;;9.27;6.67;;;6.10;43.60;;;;;;10374392;28;20242;-71
2022/01/27 16:00:14;;;;;;;7.63;6.83;;;6.20;43.70;;;;;;10373936;28;20305;-71
2022/01/27 16:05:20;;;;;;;7.17;6.47;;;6.20;43.60;;;;;;10367888;28;20766;-70
2022/01/27 16:10:24;;;;;;;8.33;6.70;;;6.20;43.60;;;;;;10371045;28;20233;-71
2022/01/27 16:15:29;;;;;;;6.83;5.90;;;6.30;43.80;;;;;;10372771;28;20225;-71
2022/01/27 16:20:34;;;;;;;7.37;6.03;;;6.30;43.80;;;;;;10375743;28;20603;-70
2022/01/27 16:25:37;;;;;;;16.10;11.57;;;6.40;43.70;;;;;;10374918;28;20233;-70
2022/01/27 16:30:40;;;;;;;6.17;5.53;;;6.40;43.70;;;;;;10381277;28;20230;-70
2022/01/27 16:35:45;;;;;;;6.63;5.93;;;6.50;43.60;;;;;;10377939;28;20592;-71
2022/01/27 16:40:48;;;;;;;6.37;5.53;;;6.50;43.40;;;;;;10378855;28;20312;-70
2022/01/27 16:45:51;;;;;;;5.97;5.37;;;6.60;43.80;;;;;;10379471;28;20671;-71
2022/01/27 16:50:56;;;;;;;5.80;4.87;;;6.60;43.70;;;;;;10382529;28;20595;-71
2022/01/27 16:56:00;;;;;;;6.03;5.20;;;6.60;43.90;;;;;;10381869;28;20230;-71
2022/01/27 17:01:03;;;;;;;6.17;5.37;;;6.60;44.00;;;;;;10382024;28;20225;-70
2022/01/27 17:06:08;;;;;;;6.23;5.63;;;6.50;43.90;;;;;;10383234;28;20218;-70
2022/01/27 17:11:11;;;;;;;6.13;5.53;;;6.50;44.10;;;;;;10383667;28;20228;-70
2022/01/27 17:16:14;;;;;;;6.10;5.23;;;6.50;44.10;;;;;;10380166;28;20230;-70
2022/01/27 17:21:19;;;;;;;6.70;5.63;;;6.40;44.10;;;;;;10381675;28;20249;-70
2022/01/27 17:26:22;;;;;;;6.17;5.50;;;6.40;44.40;;;;;;10377527;28;20237;-70
2022/01/27 17:31:25;;;;;;;6.20;5.60;;;6.30;44.60;;;;;;10380641;28;20229;-70
2022/01/27 17:36:30;;;;;;;6.87;6.17;;;6.30;44.60;;;;;;10378880;28;20221;-71
2022/01/27 17:41:33;;;;;;;7.43;6.30;;;6.20;44.70;;;;;;10379788;28;20226;-70
2022/01/27 17:46:38;;;;;;;6.80;5.73;;;6.20;44.80;;;;;;10381737;28;20228;-71
2022/01/27 17:51:44;;;;;;;7.83;6.00;;;6.10;44.60;;;;;;10384183;28;20231;-70
2022/01/27 17:56:48;;;;;;;6.80;6.13;;;6.20;44.90;;;;;;10381682;28;20721;-71
2022/01/27 18:01:51;;;;;;;7.77;6.97;;;6.20;44.80;;;;;;10383733;28;20217;-70
2022/01/27 18:06:56;;;;;;;7.77;6.50;;;6.10;44.60;;;;;;10376005;28;20800;-71
2022/01/27 18:12:00;;;;;;;8.53;7.33;;;6.20;44.70;;;;;;10380740;28;20766;-71
2022/01/27 18:17:03;;;;;;;9.63;8.07;;;6.20;44.70;;;;;;10378654;28;20230;-71
2022/01/27 18:22:08;;;;;;;10.73;8.40;;;6.20;44.50;;;;;;10377861;28;20222;-71
2022/01/27 18:27:12;;;;;;;9.87;7.97;;;6.20;44.50;;;;;;10381802;28;20227;-71
2022/01/27 18:32:15;;;;;;;9.53;8.20;;;6.20;44.40;;;;;;10381368;28;20229;-71
2022/01/27 18:37:20;;;;;;;10.13;8.83;;;6.30;44.30;;;;;;10383015;28;20638;-71
2022/01/27 18:42:23;;;;;;;10.60;8.57;;;6.30;44.30;;;;;;10382614;28;20226;-71
2022/01/27 18:47:27;;;;;;;10.63;8.37;;;6.30;44.40;;;;;;10378776;28;20689;-71
2022/01/27 18:52:31;;;;;;;9.40;8.47;;;6.30;44.20;;;;;;10378693;28;20294;-71
2022/01/27 18:57:35;;;;;;;10.20;8.83;;;6.40;44.10;;;;;;10378907;28;20230;-71
2022/01/27 19:02:38;;;;;;;10.10;9.00;;;6.40;44.30;;;;;;10377863;28;20240;-70
2022/01/27 19:07:43;;;;;;;12.50;9.40;;;6.40;44.30;;;;;;10382361;28;20236;-71
2022/01/27 19:12:47;;;;;;;10.77;8.60;;;6.50;44.30;;;;;;10382578;28;20242;-71
2022/01/27 19:17:50;;;;;;;9.00;8.10;;;6.50;44.30;;;;;;10379145;28;20229;-71
2022/01/27 19:22:55;;;;;;;10.03;8.50;;;6.50;44.30;;;;;;10379600;28;20242;-71
2022/01/27 19:27:59;;;;;;;11.97;9.27;;;6.60;44.40;;;;;;10380394;28;20250;-71
2022/01/27 19:33:02;;;;;;;10.27;9.00;;;6.60;44.40;;;;;;10381822;28;20217;-71
2022/01/27 19:38:07;;;;;;;9.63;8.10;;;6.60;44.90;;;;;;10377818;28;20224;-71
2022/01/27 19:43:10;;;;;;;9.73;7.67;;;6.70;44.20;;;;;;10380104;28;20233;-71
2022/01/27 19:48:14;;;;;;;8.63;7.50;;;6.80;44.20;;;;;;10388389;28;20229;-71
2022/01/27 19:53:19;;;;;;;8.83;7.80;;;6.80;44.20;;;;;;10382812;28;20708;-71
2022/01/27 19:58:22;;;;;;;8.70;7.63;;;6.80;44.20;;;;;;10378887;28;20606;-71
2022/01/27 20:03:26;;;;;;;9.67;6.97;;;6.80;44.20;;;;;;10387325;28;20222;-71
2022/01/27 20:08:31;;;;;;;8.40;7.50;;;6.80;44.40;;;;;;10384130;28;20226;-71
2022/01/27 20:13:35;;;;;;;7.73;6.73;;;6.80;44.60;;;;;;10384730;28;20217;-71
2022/01/27 20:18:39;;;;;;;7.90;6.63;;;6.80;44.70;;;;;;10373838;28;20230;-71
2022/01/27 20:23:46;;;;;;;8.57;7.07;;;6.80;44.80;;;;;;10381268;28;20694;-71
2022/01/27 20:28:49;;;;;;;7.80;6.47;;;6.80;45.70;;;;;;10382598;28;20261;-71
2022/01/27 20:33:52;;;;;;;8.20;6.27;;;6.80;45.10;;;;;;10384671;28;20241;-71
2022/01/27 20:38:57;;;;;;;7.50;6.40;;;6.80;45.10;;;;;;10381685;28;20280;-71
2022/01/27 20:44:00;;;;;;;6.77;5.37;;;6.80;45.10;;;;;;10386410;28;20545;-71
2022/01/27 20:49:06;;;;;;;5.87;5.23;;;6.80;45.20;;;;;;10382069;28;20229;-71
2022/01/27 20:54:10;;;;;;;6.73;5.70;;;6.90;45.50;;;;;;10380027;28;20230;-71
2022/01/27 20:59:13;;;;;;;5.87;5.37;;;6.90;45.60;;;;;;10381404;28;20607;-71
2022/01/27 21:04:32;;;;;;;7.07;5.97;;;6.90;45.50;;;;;;10377816;28;20656;-71
2022/01/27 21:09:41;;;;;;;6.90;5.87;;;6.90;45.60;;;;;;10381039;28;20230;-71
2022/01/27 21:14:45;;;;;;;5.83;5.20;;;6.90;45.80;;;;;;10377646;28;20660;-71
2022/01/27 21:19:48;;;;;;;6.63;5.70;;;6.90;45.70;;;;;;10385422;28;20226;-71
2022/01/27 21:24:53;;;;;;;5.90;5.30;;;6.90;45.80;;;;;;10380038;28;20234;-72
2022/01/27 21:29:56;;;;;;;5.37;4.83;;;6.90;46.10;;;;;;10376333;28;20249;-71
2022/01/27 21:35:00;;;;;;;5.17;4.67;;;7.00;46.10;;;;;;10383667;28;20226;-71
2022/01/27 21:40:07;;;;;;;4.93;4.43;;;7.00;46.00;;;;;;10379393;28;20273;-71
2022/01/27 21:45:10;;;;;;;5.17;4.60;;;7.00;46.30;;;;;;10372831;28;20241;-71
2022/01/27 21:50:15;;;;;;;4.83;4.20;;;6.90;46.30;;;;;;10375294;28;20226;-71
2022/01/27 21:55:21;;;;;;;6.10;5.50;;;6.90;46.50;;;;;;10374462;28;20682;-71
2022/01/27 22:00:27;;;;;;;6.93;6.23;;;6.90;46.70;;;;;;10374916;28;20261;-71
2022/01/27 22:05:30;;;;;;;7.23;6.50;;;6.80;46.40;;;;;;10372196;28;20618;-71
2022/01/27 22:10:35;;;;;;;7.77;6.97;;;6.90;46.50;;;;;;10373021;28;20225;-71
2022/01/27 22:15:39;;;;;;;7.87;7.07;;;6.80;46.70;;;;;;10371932;28;20230;-71
2022/01/27 22:20:42;;;;;;;7.97;6.87;;;6.80;46.50;;;;;;10377517;28;20226;-71
2022/01/27 22:25:47;;;;;;;7.73;6.93;;;6.80;46.50;;;;;;10373827;28;20534;-72
2022/01/27 22:30:51;;;;;;;7.87;7.07;;;6.80;46.50;;;;;;10372791;28;20245;-71
2022/01/27 22:35:54;;;;;;;8.20;7.17;;;6.80;46.50;;;;;;10374605;28;20226;-71
2022/01/27 22:40:59;;;;;;;6.80;6.13;;;6.80;46.60;;;;;;10373791;28;20248;-71
2022/01/27 22:46:03;;;;;;;6.90;6.20;;;6.80;46.70;;;;;;10372758;28;20234;-71
2022/01/27 22:51:07;;;;;;;6.17;5.57;;;6.90;46.80;;;;;;10371810;28;20222;-71
2022/01/27 22:56:13;;;;;;;5.60;5.10;;;6.90;46.70;;;;;;10373579;28;20229;-71
2022/01/27 23:01:16;;;;;;;7.73;5.20;;;6.90;46.70;;;;;;10373836;28;20221;-71
2022/01/27 23:06:19;;;;;;;5.57;5.00;;;7.00;46.70;;;;;;10376649;28;20283;-71
2022/01/27 23:11:26;;;;;;;5.73;5.23;;;7.00;46.70;;;;;;10378042;28;20232;-71
2022/01/27 23:16:44;;;;;;;4.97;4.47;;;7.00;46.90;;;;;;10374204;28;20227;-71
2022/01/27 23:21:56;;;;;;;4.83;4.13;;;7.10;46.80;;;;;;10377340;28;20272;-71
2022/01/27 23:27:05;;;;;;;4.50;4.10;;;7.20;46.70;;;;;;10375371;28;20226;-71
2022/01/27 23:32:08;;;;;;;4.63;4.23;;;7.20;46.90;;;;;;10372890;28;20241;-71
2022/01/27 23:42:50;;;;;;;5.00;4.50;;;7.30;46.70;;;;;;10375446;28;20313;-71
2022/01/27 23:47:58;;;;;;;4.77;4.20;;;7.20;46.80;;;;;;10378124;28;20232;-71
2022/01/27 23:53:08;;;;;;;4.83;4.30;;;7.20;46.70;;;;;;10378080;28;20221;-71
2022/01/27 23:58:22;;;;;;;4.80;4.40;;;7.20;46.90;;;;;;10376158;28;20226;-71
